Latest Coastal Weather Observations for Kalumburu

IDW60701

Issued at 10:13 am WST Sunday 20 August 2017 (issued every 10 minutes, with the page automatically refreshed every 10 minutes)

About coastal observations | Map of coastal stations | Coastal observations for WA | Marine services | Other Formats
Station Details ID: 001019 Name: KALUMBURU Lat: -14.30 Lon: 126.65 Height: 23.0 m
Data from the previous 72 hours. | See also: Recent months at Kalumburu
Date/Time
WST
Temp
°C
Wind Pressure Rain since
9am
mm
Weather Cloud Vis
km
Sea
Height
m
Swell
Dir  Spd
kts
Gust
kts
hPa Trend Height
m
Period
s
Dir
20/10:00am 34.8 ENE 6 11 1013.9 - 0.0 - - - - - - -
20/09:30am 33.9 SE 7 12 1014.2 - 0.0 - - - - - - -
20/09:00am 30.8 SW 4 6 1014.4 - 0.0 - - - - - - -
20/08:30am 29.0 S 5 7 1014.5 - 0.0 - - - - - - -
20/08:00am 26.8 SSW 5 7 1014.5 - 0.0 - - - - - - -
20/07:30am 24.9 S 4 7 1014.4 - 0.0 - - - - - - -
20/07:00am 23.6 CALM 0 0 1014.2 - 0.0 - - - - - - -
20/06:30am 21.5 CALM 0 0 1014.1 - 0.0 - - - - - - -
20/06:00am 19.1 CALM 0 0 1013.9 - 0.0 - - - - - - -
20/05:30am 19.5 CALM 0 0 1013.6 - 0.0 - - - - - - -
20/05:00am 20.2 N 1 3 1013.3 - 0.0 - - - - - - -
20/04:30am 19.2 ESE 1 4 1013.3 - 0.0 - - - - - - -
20/04:00am 20.1 CALM 0 0 1013.1 - 0.0 - - - - - - -
20/03:30am 20.2 CALM 0 0 1012.9 - 0.0 - - - - - - -
20/03:00am 20.4 N 1 3 1012.9 - 0.0 - - - - - - -
20/02:30am 20.1 CALM 0 0 1012.8 - 0.0 - - - - - - -
20/02:00am 20.2 S 1 3 1012.9 - 0.0 - - - - - - -
20/01:30am 20.0 CALM 0 0 1013.0 - 0.0 - - - - - - -
20/01:00am 20.6 CALM 0 0 1013.0 - 0.0 - - - - - - -
20/12:30am 20.3 CALM 0 0 1013.3 - 0.0 - - - - - - -
20/12:00am 20.6 CALM 0 0 1013.5 - 0.0 - - - - - - -
 
Date/Time
WST
Temp
°C
Wind Pressure Rain since
9am
mm
Weather Cloud Vis
km
Sea
Height
m
Swell
Dir  Spd
kts
Gust
kts
hPa Trend Height
m
Period
s
Dir
19/11:30pm 20.7 CALM 0 0 1013.7 - 0.0 - - - - - - -
19/11:00pm 21.1 CALM 0 0 1013.8 - 0.0 - - - - - - -
19/10:30pm 21.3 CALM 0 0 1013.8 - 0.0 - - - - - - -
19/10:00pm 21.7 CALM 0 0 1014.0 - 0.0 - - - - - - -
19/09:30pm 21.9 CALM 0 0 1014.1 - 0.0 - - - - - - -
19/09:00pm 22.0 CALM 0 0 1014.3 - 0.0 - - - - - - -
19/08:30pm 22.5 CALM 0 0 1014.1 - 0.0 - - - - - - -
19/08:00pm 23.5 CALM 0 0 1014.0 - 0.0 - - - - - - -
19/07:30pm 24.0 CALM 0 0 1013.9 - 0.0 - - - - - - -
19/07:00pm 25.1 NNW 3 4 1013.4 - 0.0 - - - - - - -
19/06:30pm 26.2 N 3 5 1013.2 - 0.0 - - - - - - -
19/06:00pm 26.8 NNW 3 5 1012.7 - 0.0 - - - - - - -
19/05:30pm 27.7 NNW 4 7 1012.2 - 0.0 - - - - - - -
19/05:00pm 29.2 N 7 11 1011.7 - 0.0 - - - - - - -
19/04:30pm 30.5 N 8 12 1011.2 - 0.0 - - - - - - -
19/04:00pm 31.2 NNW 7 11 1010.9 - 0.0 - - - - - - -
19/03:30pm 31.8 NNW 8 12 1010.7 - 0.0 - - - - - - -
19/03:00pm 31.9 NNW 10 14 1010.8 - 0.0 - - - - - - -
19/02:30pm 33.0 N 11 14 1011.2 - 0.0 - - - - - - -
19/02:00pm 33.4 N 10 15 1011.4 - 0.0 - - - - - - -
19/01:30pm 33.9 NNW 10 16 1011.8 - 0.0 - - - - - - -
19/01:00pm 34.0 NNW 11 16 1012.1 - 0.0 - - - - - - -
19/12:30pm 34.3 NNW 9 13 1012.4 - 0.0 - - - - - - -
19/12:00pm 33.6 NW 8 13 1013.0 - 0.0 - - - - - - -
19/11:30am 32.8 NNW 10 15 1013.4 - 0.0 - - - - - - -
19/11:00am 33.0 NNW 10 15 1013.8 - 0.0 - - - - - - -
19/10:30am 33.2 NNW 6 10 1014.2 - 0.0 - - - - - - -
19/10:00am 32.8 WNW 4 5 1014.8 - 0.0 - - - - - - -
19/09:30am 31.8 SSW 2 5 1015.2 - 0.0 - - - - - - -
19/09:00am 30.4 SSW 4 5 1015.5 - 0.0 - - - - - - -
19/08:30am 28.8 S 3 5 1015.6 - 0.0 - - - - - - -
19/08:00am 27.4 NNW 3 4 1015.5 - 0.0 - - - - - - -
19/07:30am 25.7 N 1 4 1015.4 - 0.0 - - - - - - -
19/07:00am 23.6 CALM 0 0 1015.0 - 0.0 - - - - - - -
19/06:30am 20.8 CALM 0 3 1014.8 - 0.0 - - - - - - -
19/06:00am 20.1 CALM 0 0 1014.4 - 0.0 - - - - - - -
19/05:30am 19.9 CALM 0 0 1014.0 - 0.0 - - - - - - -
19/05:00am 20.7 CALM 0 0 1013.6 - 0.0 - - - - - - -
19/04:30am 20.4 CALM 0 0 1013.2 - 0.0 - - - - - - -
19/04:00am 20.5 CALM 0 0 1012.9 - 0.0 - - - - - - -
19/03:30am 20.5 CALM 0 0 1012.9 - 0.0 - - - - - - -
19/03:00am 20.3 CALM 0 0 1012.8 - 0.0 - - - - - - -
19/02:30am 20.2 CALM 0 0 1013.0 - 0.0 - - - - - - -
19/02:00am 20.5 CALM 0 0 1013.2 - 0.0 - - - - - - -
19/01:30am 20.8 CALM 0 0 1013.4 - 0.0 - - - - - - -
19/01:00am 21.3 CALM 0 0 1013.5 - 0.0 - - - - - - -
19/12:30am 21.2 CALM 0 0 1013.7 - 0.0 - - - - - - -
19/12:00am 21.5 CALM 0 0 1013.8 - 0.0 - - - - - - -
 
Date/Time
WST
Temp
°C
Wind Pressure Rain since
9am
mm
Weather Cloud Vis
km
Sea
Height
m
Swell
Dir  Spd
kts
Gust
kts
hPa Trend Height
m
Period
s
Dir
18/11:30pm 21.7 CALM 0 0 1014.0 - 0.0 - - - - - - -
18/11:00pm 21.8 SSE 3 4 1014.1 - 0.0 - - - - - - -
18/10:30pm 22.3 CALM 0 0 1014.1 - 0.0 - - - - - - -
18/10:00pm 22.5 CALM 0 0 1014.2 - 0.0 - - - - - - -
18/09:30pm 23.2 CALM 0 0 1014.4 - 0.0 - - - - - - -
18/09:00pm 23.5 CALM 0 0 1014.3 - 0.0 - - - - - - -
18/08:30pm 24.0 CALM 0 0 1014.2 - 0.0 - - - - - - -
18/08:00pm 25.4 N 3 5 1014.0 - 0.0 - - - - - - -
18/07:30pm 25.7 N 3 5 1013.6 - 0.0 - - - - - - -
18/07:00pm 26.2 N 5 6 1013.1 - 0.0 - - - - - - -
18/06:30pm 26.5 N 5 7 1012.4 - 0.0 - - - - - - -
18/06:00pm 26.7 N 5 6 1012.0 - 0.0 - - - - - - -
18/05:30pm 27.3 N 8 11 1011.6 - 0.0 - - - - - - -
18/05:00pm 28.3 NNW 8 13 1011.4 - 0.0 - - - - - - -
18/04:30pm 29.2 N 8 11 1011.1 - 0.0 - - - - - - -
18/04:00pm 30.0 N 10 13 1010.8 - 0.0 - - - - - - -
18/03:30pm 31.4 N 10 15 1010.6 - 0.0 - - - - - - -
18/03:00pm 31.6 NNW 11 15 1010.6 - 0.0 - - - - - - -
18/02:30pm 31.6 N 12 16 1010.7 - 0.0 - - - - - - -
18/02:00pm 32.0 N 11 14 1010.8 - 0.0 - - - - - - -
18/01:30pm 33.4 NNW 11 15 1010.9 - 0.0 - - - - - - -
18/01:00pm 33.6 NW 10 14 1011.1 - 0.0 - - - - - - -
18/12:30pm 33.6 NW 10 15 1011.4 - 0.0 - - - - - - -
18/12:00pm 34.2 NNW 10 15 1011.8 - 0.0 - - - - - - -
18/11:30am 33.6 NW 10 15 1012.0 - 0.0 - - - - - - -
18/11:00am 35.3 E 4 8 1012.3 - 0.0 - - - - - - -
18/10:30am 35.2 NNE 3 7 1012.9 - 0.0 - - - - - - -
18/10:00am 32.6 NW 3 5 1013.1 - 0.0 - - - - - - -
18/09:30am 32.1 S 3 5 1013.4 - 0.0 - - - - - - -
18/09:00am 30.1 S 4 5 1013.5 - 0.0 - - - - - - -
18/08:30am 28.8 SSW 1 3 1013.3 - 0.0 - - - - - - -
18/08:00am 26.3 SSW 3 4 1013.1 - 0.0 - - - - - - -
18/07:30am 23.9 CALM 0 3 1013.0 - 0.0 - - - - - - -
18/07:00am 22.4 CALM 0 0 1012.7 - 0.0 - - - - - - -
18/06:30am 20.1 CALM 0 0 1012.5 - 0.0 - - - - - - -
18/06:00am 19.3 CALM 0 0 1012.1 - 0.0 - - - - - - -
18/05:30am 19.8 CALM 0 0 1011.6 - 0.0 - - - - - - -
18/05:00am 20.4 CALM 0 0 1011.3 - 0.0 - - - - - - -
18/04:30am 20.9 CALM 0 0 1011.0 - 0.0 - - - - - - -
18/04:00am 20.1 CALM 0 0 1010.8 - 0.0 - - - - - - -
18/03:30am 19.1 CALM 0 0 1010.7 - 0.0 - - - - - - -
18/03:00am 19.5 CALM 0 0 1010.7 - 0.0 - - - - - - -
18/02:30am 19.6 CALM 0 0 1010.7 - 0.0 - - - - - - -
18/02:00am 19.9 CALM 0 0 1010.7 - 0.0 - - - - - - -
18/01:30am 20.0 CALM 0 0 1010.9 - 0.0 - - - - - - -
18/01:00am 20.2 CALM 0 0 1011.1 - 0.0 - - - - - - -
18/12:30am 20.7 CALM 0 0 1011.5 - 0.0 - - - - - - -
18/12:00am 21.0 CALM 0 0 1011.7 - 0.0 - - - - - - -
 
Date/Time
WST
Temp
°C
Wind Pressure Rain since
9am
mm
Weather Cloud Vis
km
Sea
Height
m
Swell
Dir  Spd
kts
Gust
kts
hPa Trend Height
m
Period
s
Dir
17/11:30pm 21.6 CALM 0 0 1011.9 - 0.0 - - - - - - -
17/11:00pm 21.9 CALM 0 0 1012.1 - 0.0 - - - - - - -
17/10:30pm 22.2 CALM 0 0 1012.2 - 0.0 - - - - - - -
17/10:00pm 23.3 CALM 0 0 1012.2 - 0.0 - - - - - - -
17/09:30pm 24.2 NE 3 4 1012.2 - 0.0 - - - - - - -
17/09:00pm 24.6 NE 3 4 1012.1 - 0.0 - - - - - - -
17/08:30pm 24.6 ENE 4 5 1012.0 - 0.0 - - - - - - -
17/08:00pm 25.0 CALM 0 0 1011.8 - 0.0 - - - - - - -
17/07:30pm 26.4 NNE 4 5 1011.5 - 0.0 - - - - - - -
17/07:00pm 26.6 CALM 0 0 1011.0 - 0.0 - - - - - - -
17/06:30pm 28.1 NNE 5 8 1010.5 - 0.0 - - - - - - -
17/06:00pm 29.0 N 5 7 1009.9 - 0.0 - - - - - - -
17/05:30pm 30.1 N 8 13 1009.2 - 0.0 - - - - - - -
17/05:00pm 31.3 N 9 13 1008.6 - 0.0 - - - - - - -
17/04:30pm 34.0 NNW 6 8 1008.2 - 0.0 - - - - - - -
17/04:00pm 34.1 NNW 8 12 1008.0 - 0.0 - - - - - - -
17/03:30pm 34.5 NNW 10 14 1007.8 - 0.0 - - - - - - -
17/03:00pm 34.8 NNW 9 14 1007.8 - 0.0 - - - - - - -
17/02:30pm 35.2 NNW 8 12 1007.8 - 0.0 - - - - - - -
17/02:00pm 34.9 NNW 9 15 1008.0 - 0.0 - - - - - - -
17/01:30pm 35.5 N 8 12 1008.3 - 0.0 - - - - - - -
17/01:00pm 35.1 NNW 10 13 1008.7 - 0.0 - - - - - - -
17/12:30pm 35.2 NW 8 13 1009.2 - 0.0 - - - - - - -
17/12:00pm 35.8 SSW 4 8 1009.6 - 0.0 - - - - - - -
17/11:30am 35.4 NNW 5 7 1010.3 - 0.0 - - - - - - -
17/11:00am 34.8 SSW 4 9 1010.9 - 0.0 - - - - - - -
17/10:30am 33.8 WSW 4 7 1011.3 - 0.0 - - - - - - -

Other Formats:

Comma delimited format used in spreadsheet applications
http://www.bom.gov.au/fwo/IDW60701/IDW60701.94100.axf

JavaScript Object Notation format (JSON) in row-major order
http://www.bom.gov.au/fwo/IDW60701/IDW60701.94100.json